createdAt,value
2022-09-20T00:00:49.300Z,6.30
2022-09-20T00:01:49.258Z,6.33
2022-09-20T00:02:49.271Z,6.34
2022-09-20T00:03:49.276Z,6.34
2022-09-20T00:04:49.328Z,6.33
2022-09-20T00:05:49.297Z,6.22
2022-09-20T00:06:49.310Z,6.19
2022-09-20T00:07:49.318Z,6.21
2022-09-20T00:08:49.335Z,6.11
2022-09-20T00:09:49.340Z,6.14
2022-09-20T00:10:49.370Z,6.04
2022-09-20T00:11:49.355Z,5.99
2022-09-20T00:12:49.367Z,6.03
2022-09-20T00:13:49.380Z,6.01
2022-09-20T00:14:49.395Z,6.03
2022-09-20T00:15:49.400Z,6.06
2022-09-20T00:16:49.473Z,6.06
2022-09-20T00:17:49.414Z,6.08
2022-09-20T00:18:49.425Z,6.06
2022-09-20T00:19:49.434Z,6.03
2022-09-20T00:20:49.445Z,6.04
2022-09-20T00:21:49.451Z,6.09
2022-09-20T00:22:49.465Z,6.11
2022-09-20T00:23:49.477Z,6.11
2022-09-20T00:24:49.482Z,6.06
2022-09-20T00:25:49.501Z,6.04
2022-09-20T00:26:49.546Z,6.09
2022-09-20T00:27:49.512Z,6.03
2022-09-20T00:28:49.532Z,5.94
2022-09-20T00:29:49.542Z,6.06
2022-09-20T00:30:49.541Z,6.06
2022-09-20T00:31:49.628Z,5.97
2022-09-20T00:32:49.563Z,5.96
2022-09-20T00:33:49.573Z,6.06
2022-09-20T00:34:49.576Z,6.00
2022-09-20T00:35:49.598Z,5.93
2022-09-20T00:36:49.600Z,5.97
2022-09-20T00:37:49.608Z,5.89
2022-09-20T00:38:49.620Z,5.89
2022-09-20T00:39:49.631Z,5.76
2022-09-20T00:40:49.637Z,5.85
2022-09-20T00:41:49.644Z,5.85
2022-09-20T00:42:49.675Z,5.79
2022-09-20T00:43:49.668Z,5.82
2022-09-20T00:44:49.673Z,5.81
2022-09-20T00:45:49.786Z,5.82
2022-09-20T00:46:49.690Z,5.89
2022-09-20T00:47:49.704Z,5.90
2022-09-20T00:48:49.717Z,5.83
2022-09-20T00:49:49.719Z,5.79
2022-09-20T00:50:49.746Z,5.91
2022-09-20T00:51:49.739Z,5.90
2022-09-20T00:52:49.749Z,5.90
2022-09-20T00:53:49.758Z,5.83
2022-09-20T00:54:49.770Z,5.86
2022-09-20T00:55:49.777Z,6.01
2022-09-20T00:56:49.785Z,5.99
2022-09-20T00:57:49.794Z,5.94
2022-09-20T00:58:49.836Z,5.81
2022-09-20T00:59:49.816Z,5.85
2022-09-20T01:00:49.904Z,5.97
2022-09-20T01:01:50.137Z,5.86
2022-09-20T01:02:49.945Z,5.89
2022-09-20T01:03:49.852Z,5.91
2022-09-20T01:04:49.860Z,5.96
2022-09-20T01:05:49.870Z,5.85
2022-09-20T01:06:49.880Z,5.85
2022-09-20T01:07:49.890Z,5.90
2022-09-20T01:08:49.899Z,5.85
2022-09-20T01:09:49.912Z,5.94
2022-09-20T01:10:49.916Z,5.89
2022-09-20T01:11:49.926Z,5.91
2022-09-20T01:12:49.942Z,5.97
2022-09-20T01:13:49.946Z,5.85
2022-09-20T01:14:49.980Z,5.82
2022-09-20T01:15:49.964Z,5.83
2022-09-20T01:16:50.012Z,5.79
2022-09-20T01:17:49.981Z,5.79
2022-09-20T01:18:49.995Z,5.85
2022-09-20T01:19:50.000Z,5.85
2022-09-20T01:20:50.011Z,5.81
2022-09-20T01:21:50.017Z,5.79
2022-09-20T01:22:50.036Z,5.83
2022-09-20T01:23:50.039Z,5.82
2022-09-20T01:24:50.048Z,5.82
2022-09-20T01:25:50.062Z,5.79
2022-09-20T01:26:50.067Z,5.83
2022-09-20T01:27:50.077Z,5.86
2022-09-20T01:28:50.086Z,5.89
2022-09-20T01:29:50.194Z,5.78
2022-09-20T01:30:50.127Z,5.81
2022-09-20T01:31:50.205Z,5.81
2022-09-20T01:32:50.127Z,5.81
2022-09-20T01:33:50.130Z,5.82
2022-09-20T01:34:50.146Z,5.79
2022-09-20T01:35:50.163Z,5.76
2022-09-20T01:36:50.162Z,5.75
2022-09-20T01:37:50.170Z,5.63
2022-09-20T01:38:50.183Z,5.63
2022-09-20T01:39:50.189Z,5.71
2022-09-20T01:40:50.201Z,5.60
2022-09-20T01:41:50.212Z,5.61
2022-09-20T01:42:50.214Z,5.65
2022-09-20T01:43:50.233Z,5.65
2022-09-20T01:44:50.232Z,5.65
2022-09-20T01:45:50.312Z,5.71
2022-09-20T01:46:50.286Z,5.71
2022-09-20T01:47:50.265Z,5.71
2022-09-20T01:48:50.270Z,5.64
2022-09-20T01:49:50.284Z,5.68
2022-09-20T01:50:50.340Z,5.63
2022-09-20T01:51:50.307Z,5.64
2022-09-20T01:52:50.309Z,5.64
2022-09-20T01:53:50.318Z,5.72
2022-09-20T01:54:50.329Z,5.56
2022-09-20T01:55:50.337Z,5.61
2022-09-20T01:56:50.349Z,5.60
2022-09-20T01:57:50.356Z,5.67
2022-09-20T01:59:01.934Z,5.67
2022-09-20T01:59:50.374Z,5.65
2022-09-20T02:00:50.433Z,5.60
2022-09-20T02:01:50.392Z,5.60
2022-09-20T02:02:50.538Z,5.71
2022-09-20T02:03:50.412Z,5.71
2022-09-20T02:04:50.423Z,5.65
2022-09-20T02:05:50.436Z,5.63
2022-09-20T02:06:50.452Z,5.64
2022-09-20T02:07:50.471Z,5.65
2022-09-20T02:08:50.462Z,5.72
2022-09-20T02:09:50.466Z,5.72
2022-09-20T02:10:50.475Z,5.71
2022-09-20T02:11:50.485Z,5.64
2022-09-20T02:12:50.496Z,5.58
2022-09-20T02:13:50.504Z,5.65
2022-09-20T02:14:50.510Z,5.60
2022-09-20T02:15:50.521Z,5.58
2022-09-20T02:16:50.663Z,5.48
2022-09-20T02:17:50.548Z,5.51
2022-09-20T02:18:50.572Z,5.53
2022-09-20T02:19:50.557Z,5.43
2022-09-20T02:20:50.569Z,5.42
2022-09-20T02:21:50.574Z,5.36
2022-09-20T02:22:50.655Z,5.51
2022-09-20T02:23:50.595Z,5.46
2022-09-20T02:24:50.608Z,5.48
2022-09-20T02:25:50.611Z,5.57
2022-09-20T02:26:50.621Z,5.51
2022-09-20T02:27:50.631Z,5.49
2022-09-20T02:28:50.642Z,5.49
2022-09-20T02:29:50.647Z,5.51
2022-09-20T02:30:50.659Z,5.49
2022-09-20T02:31:50.778Z,5.49
2022-09-20T02:32:50.677Z,5.54
2022-09-20T02:33:50.689Z,5.43
2022-09-20T02:34:50.720Z,5.45
2022-09-20T02:35:50.703Z,5.38
2022-09-20T02:36:50.714Z,5.39
2022-09-20T02:37:50.723Z,5.45
2022-09-20T02:38:50.735Z,5.43
2022-09-20T02:39:50.746Z,5.40
2022-09-20T02:40:50.747Z,5.43
2022-09-20T02:41:50.758Z,5.39
2022-09-20T02:42:50.768Z,5.33
2022-09-20T02:43:50.778Z,5.39
2022-09-20T02:44:50.786Z,5.27
2022-09-20T02:45:50.860Z,5.22
2022-09-20T02:46:50.802Z,5.27
2022-09-20T02:47:50.810Z,5.22
2022-09-20T02:48:50.822Z,5.13
2022-09-20T02:49:50.831Z,5.15
2022-09-20T02:50:50.862Z,5.12
2022-09-20T02:51:50.860Z,5.02
2022-09-20T02:52:50.859Z,5.06
2022-09-20T02:53:50.868Z,4.99
2022-09-20T02:54:50.874Z,5.00
2022-09-20T02:55:50.884Z,5.04
2022-09-20T02:56:50.891Z,4.99
2022-09-20T02:57:50.900Z,5.03
2022-09-20T02:58:50.911Z,5.02
2022-09-20T02:59:50.920Z,5.09
2022-09-20T03:00:50.981Z,5.12
2022-09-20T03:01:51.014Z,5.13
2022-09-20T03:02:50.944Z,5.10
2022-09-20T03:03:50.955Z,5.10
2022-09-20T03:04:50.970Z,5.13
2022-09-20T03:05:50.975Z,5.09
2022-09-20T03:06:51.032Z,5.09
2022-09-20T03:07:50.992Z,5.02
2022-09-20T03:08:50.999Z,5.09
2022-09-20T03:09:51.011Z,5.02
2022-09-20T03:10:51.019Z,5.07
2022-09-20T03:11:51.028Z,5.09
2022-09-20T03:12:51.036Z,5.09
2022-09-20T03:13:51.147Z,5.13
2022-09-20T03:14:51.061Z,5.06
2022-09-20T03:15:51.068Z,5.07
2022-09-20T03:16:52.448Z,5.10
2022-09-20T03:17:51.080Z,5.09
2022-09-20T03:18:51.087Z,5.00
2022-09-20T03:19:51.102Z,5.00
2022-09-20T03:20:51.112Z,5.04
2022-09-20T03:21:51.116Z,4.96
2022-09-20T03:22:51.157Z,4.96
2022-09-20T03:23:51.244Z,4.91
2022-09-20T03:24:51.144Z,4.96
2022-09-20T03:25:51.150Z,4.89
2022-09-20T03:26:51.157Z,4.96
2022-09-20T03:27:51.169Z,4.88
2022-09-20T03:28:51.218Z,4.99
2022-09-20T03:29:51.185Z,4.92
2022-09-20T03:30:51.197Z,5.03
2022-09-20T03:31:51.266Z,5.04
2022-09-20T03:32:51.212Z,5.02
2022-09-20T03:33:51.221Z,5.04
2022-09-20T03:34:51.228Z,4.92
2022-09-20T03:35:51.238Z,5.00
2022-09-20T03:36:51.246Z,4.99
2022-09-20T03:37:51.255Z,5.03
2022-09-20T03:38:51.286Z,5.04
2022-09-20T03:39:51.272Z,4.97
2022-09-20T03:40:51.388Z,5.06
2022-09-20T03:41:51.288Z,5.03
2022-09-20T03:42:51.301Z,5.07
2022-09-20T03:43:51.311Z,5.02
2022-09-20T03:44:51.318Z,5.10
2022-09-20T03:45:51.383Z,5.07
2022-09-20T03:46:51.336Z,5.07
2022-09-20T03:47:51.338Z,5.07
2022-09-20T03:48:51.352Z,5.03
2022-09-20T03:49:51.359Z,5.03
2022-09-20T03:50:51.369Z,4.99
2022-09-20T03:51:51.380Z,4.91
2022-09-20T03:52:51.387Z,5.00
2022-09-20T03:53:51.497Z,4.96
2022-09-20T03:54:51.425Z,4.91
2022-09-20T03:55:51.413Z,4.88
2022-09-20T03:56:51.421Z,4.85
2022-09-20T03:57:51.432Z,4.92
2022-09-20T03:58:51.444Z,4.88
2022-09-20T03:59:51.445Z,4.89
2022-09-20T04:00:51.499Z,4.78
2022-09-20T04:01:51.533Z,4.91
2022-09-20T04:02:51.475Z,4.89
2022-09-20T04:03:51.480Z,4.89
2022-09-20T04:04:51.494Z,4.94
2022-09-20T04:05:51.499Z,4.94
2022-09-20T04:06:51.506Z,4.89
2022-09-20T04:07:51.518Z,4.85
2022-09-20T04:08:51.523Z,4.84
2022-09-20T04:09:51.530Z,4.84
2022-09-20T04:10:51.571Z,4.84
2022-09-20T04:11:51.555Z,4.82
2022-09-20T04:12:51.563Z,4.82
2022-09-20T04:13:51.677Z,4.92
2022-09-20T04:14:51.571Z,4.84
2022-09-20T04:15:51.582Z,4.80
2022-09-20T04:16:51.753Z,4.80
2022-09-20T04:17:51.598Z,4.84
2022-09-20T04:18:51.709Z,4.80
2022-09-20T04:19:51.617Z,4.86
2022-09-20T04:20:51.627Z,4.77
2022-09-20T04:21:51.641Z,4.78
2022-09-20T04:22:51.645Z,4.78
2022-09-20T04:23:51.652Z,4.78
2022-09-20T04:24:51.663Z,4.85
2022-09-20T04:25:51.666Z,4.89
2022-09-20T04:26:51.700Z,4.85
2022-09-20T04:27:51.687Z,4.86
2022-09-20T04:28:51.696Z,4.82
2022-09-20T04:29:51.701Z,4.84
2022-09-20T04:30:51.708Z,4.88
2022-09-20T04:31:54.123Z,4.82
2022-09-20T04:32:51.737Z,4.86
2022-09-20T04:33:51.748Z,4.86
2022-09-20T04:34:51.745Z,4.85
2022-09-20T04:35:51.752Z,4.85
2022-09-20T04:36:51.763Z,4.82
2022-09-20T04:37:51.788Z,4.92
2022-09-20T04:38:51.778Z,4.78
2022-09-20T04:39:51.788Z,4.80
2022-09-20T04:40:51.798Z,4.80
2022-09-20T04:41:51.806Z,4.77
2022-09-20T04:42:51.837Z,4.84
2022-09-20T04:43:51.824Z,4.85
2022-09-20T04:44:51.829Z,4.85
2022-09-20T04:45:51.899Z,4.78
2022-09-20T04:46:55.920Z,4.84
2022-09-20T04:47:51.861Z,4.86
2022-09-20T04:48:51.876Z,4.85
2022-09-20T04:49:51.873Z,4.88
2022-09-20T04:50:51.882Z,4.94
2022-09-20T04:51:51.891Z,4.82
2022-09-20T04:52:51.899Z,4.92
2022-09-20T04:53:51.908Z,4.97
2022-09-20T04:54:51.964Z,4.89
2022-09-20T04:55:51.927Z,4.92
2022-09-20T04:56:51.939Z,5.04
2022-09-20T04:57:51.947Z,5.00
2022-09-20T04:58:51.974Z,5.02
2022-09-20T04:59:51.959Z,5.00
2022-09-20T05:00:52.002Z,4.96
2022-09-20T05:01:52.040Z,4.85
2022-09-20T05:02:51.980Z,4.86
2022-09-20T05:03:51.993Z,4.84
2022-09-20T05:04:52.000Z,4.89
2022-09-20T05:05:52.009Z,4.88
2022-09-20T05:06:52.019Z,4.82
2022-09-20T05:07:52.026Z,4.94
2022-09-20T05:08:56.628Z,4.86
2022-09-20T05:09:52.045Z,4.86
2022-09-20T05:10:52.063Z,4.84
2022-09-20T05:11:52.070Z,4.89
2022-09-20T05:12:52.073Z,4.91
2022-09-20T05:13:52.079Z,4.78
2022-09-20T05:14:52.163Z,4.84
2022-09-20T05:15:52.096Z,4.86
2022-09-20T05:16:52.214Z,4.86
2022-09-20T05:17:52.107Z,4.82
2022-09-20T05:18:52.234Z,4.70
2022-09-20T05:19:52.131Z,4.69
2022-09-20T05:20:52.136Z,4.66
2022-09-20T05:21:52.152Z,4.75
2022-09-20T05:22:52.154Z,4.73
2022-09-20T05:23:52.163Z,4.66
2022-09-20T05:24:52.174Z,4.70
2022-09-20T05:25:52.181Z,4.75
2022-09-20T05:26:52.188Z,4.73
2022-09-20T05:27:52.195Z,4.69
2022-09-20T05:28:52.201Z,4.69
2022-09-20T05:29:52.217Z,4.70
2022-09-20T05:30:52.263Z,4.65
2022-09-20T05:31:52.261Z,4.62
2022-09-20T05:32:52.336Z,4.70
2022-09-20T05:33:52.247Z,4.65
2022-09-20T05:34:52.254Z,4.70
2022-09-20T05:35:52.266Z,4.62
2022-09-20T05:36:52.270Z,4.70
2022-09-20T05:37:52.281Z,4.66
2022-09-20T05:38:52.287Z,4.59
2022-09-20T05:39:52.291Z,4.63
2022-09-20T05:40:52.303Z,4.51
2022-09-20T05:41:52.311Z,4.50
2022-09-20T05:42:52.384Z,4.48
2022-09-20T05:43:52.330Z,4.54
2022-09-20T05:44:52.336Z,4.52
2022-09-20T05:45:52.453Z,4.58
2022-09-20T05:46:52.383Z,4.50
2022-09-20T05:47:52.361Z,4.48
2022-09-20T05:48:52.372Z,4.55
2022-09-20T05:49:52.382Z,4.51
2022-09-20T05:50:55.430Z,4.45
2022-09-20T05:51:52.409Z,4.44
2022-09-20T05:52:52.403Z,4.44
2022-09-20T05:53:52.478Z,4.40
2022-09-20T05:54:52.426Z,4.45
2022-09-20T05:55:52.433Z,4.40
2022-09-20T05:56:52.443Z,4.52
2022-09-20T05:57:52.450Z,4.51
2022-09-20T05:58:52.453Z,4.63
2022-09-20T05:59:52.460Z,4.66
2022-09-20T06:00:52.615Z,4.62
2022-09-20T06:01:52.481Z,4.66
2022-09-20T06:02:52.512Z,4.67
2022-09-20T06:03:52.494Z,4.72
2022-09-20T06:04:52.499Z,4.69
2022-09-20T06:05:52.513Z,4.67
2022-09-20T06:06:52.516Z,4.70
2022-09-20T06:07:52.528Z,4.65
2022-09-20T06:08:52.594Z,4.69
2022-09-20T06:09:52.558Z,4.69
2022-09-20T06:10:52.548Z,4.67
2022-09-20T06:11:52.559Z,4.67
2022-09-20T06:12:52.568Z,4.67
2022-09-20T06:13:52.575Z,4.70
2022-09-20T06:14:52.585Z,4.69
2022-09-20T06:15:52.593Z,4.66
2022-09-20T06:16:52.670Z,4.72
2022-09-20T06:17:52.609Z,4.69
2022-09-20T06:18:52.645Z,4.75
2022-09-20T06:19:52.626Z,4.73
2022-09-20T06:20:52.636Z,4.69
2022-09-20T06:21:52.646Z,4.70
2022-09-20T06:22:52.660Z,4.78
2022-09-20T06:23:52.741Z,4.75
2022-09-20T06:24:52.666Z,4.78
2022-09-20T06:25:52.772Z,4.85
2022-09-20T06:26:52.683Z,4.89
2022-09-20T06:27:52.690Z,4.89
2022-09-20T06:28:57.619Z,4.96
2022-09-20T06:29:52.706Z,4.94
2022-09-20T06:30:52.742Z,5.00
2022-09-20T06:31:52.722Z,4.97
2022-09-20T06:32:52.733Z,4.94
2022-09-20T06:33:52.741Z,4.91
2022-09-20T06:34:52.775Z,4.84
2022-09-20T06:35:55.767Z,4.86
2022-09-20T06:36:52.771Z,4.85
2022-09-20T06:37:52.774Z,4.96
2022-09-20T06:38:52.841Z,4.89
2022-09-20T06:39:52.787Z,4.92
2022-09-20T06:40:52.800Z,4.94
2022-09-20T06:41:52.809Z,4.94
2022-09-20T06:42:52.821Z,4.96
2022-09-20T06:43:52.824Z,5.06
2022-09-20T06:44:52.832Z,5.02
2022-09-20T06:45:52.916Z,5.10
2022-09-20T06:46:52.849Z,5.24
2022-09-20T06:47:52.871Z,5.24
2022-09-20T06:48:52.869Z,5.30
2022-09-20T06:49:52.875Z,5.46
2022-09-20T06:50:52.903Z,5.39
2022-09-20T06:51:52.899Z,5.58
2022-09-20T06:52:52.903Z,5.54
2022-09-20T06:53:52.935Z,5.58
2022-09-20T06:54:52.917Z,5.65
2022-09-20T06:55:52.932Z,5.68
2022-09-20T06:56:52.932Z,5.64
2022-09-20T06:57:52.940Z,5.72
2022-09-20T06:58:52.950Z,5.61
2022-09-20T06:59:52.958Z,5.71
2022-09-20T07:00:52.981Z,5.68
2022-09-20T07:01:53.072Z,5.75
2022-09-20T07:02:52.983Z,5.82
2022-09-20T07:03:52.997Z,5.79
2022-09-20T07:04:52.997Z,5.91
2022-09-20T07:05:53.015Z,5.97
2022-09-20T07:06:53.041Z,5.96
2022-09-20T07:07:53.025Z,5.99
2022-09-20T07:08:53.137Z,6.12
2022-09-20T07:09:53.144Z,6.09
2022-09-20T07:10:53.063Z,6.06
2022-09-20T07:11:53.063Z,6.00
2022-09-20T07:12:53.067Z,5.94
2022-09-20T07:13:53.079Z,6.03
2022-09-20T07:14:53.084Z,6.12
2022-09-20T07:15:53.095Z,6.14
2022-09-20T07:16:53.173Z,6.18
2022-09-20T07:17:53.113Z,6.30
2022-09-20T07:18:53.125Z,6.30
2022-09-20T07:19:53.130Z,6.43
2022-09-20T07:20:53.136Z,6.38
2022-09-20T07:21:53.148Z,6.41
2022-09-20T07:22:53.180Z,6.46
2022-09-20T07:23:53.163Z,6.54
2022-09-20T07:24:53.171Z,6.51
2022-09-20T07:25:53.182Z,6.36
2022-09-20T07:26:53.199Z,6.36
2022-09-20T07:27:53.197Z,6.58
2022-09-20T07:28:53.207Z,6.48
2022-09-20T07:29:53.213Z,6.69
2022-09-20T07:30:53.223Z,6.77
2022-09-20T07:31:53.333Z,6.81
2022-09-20T07:32:53.238Z,6.84
2022-09-20T07:33:53.256Z,6.94
2022-09-20T07:34:53.258Z,7.02
2022-09-20T07:35:53.266Z,7.20
2022-09-20T07:36:53.279Z,7.07
2022-09-20T07:37:53.283Z,7.05
2022-09-20T07:38:53.447Z,7.20
2022-09-20T07:39:53.307Z,7.23
2022-09-20T07:40:53.311Z,7.17
2022-09-20T07:41:53.317Z,7.21
2022-09-20T07:42:56.215Z,7.31
2022-09-20T07:43:53.339Z,7.27
2022-09-20T07:44:53.342Z,7.25
2022-09-20T07:45:53.396Z,7.34
2022-09-20T07:46:53.363Z,7.24
2022-09-20T07:47:53.380Z,7.13
2022-09-20T07:48:53.381Z,7.24
2022-09-20T07:49:53.389Z,7.24
2022-09-20T07:50:53.401Z,7.16
2022-09-20T07:51:53.407Z,7.24
2022-09-20T07:52:53.415Z,7.17
2022-09-20T07:53:53.475Z,7.24
2022-09-20T07:54:53.452Z,7.35
2022-09-20T07:55:53.444Z,7.50
2022-09-20T07:56:53.449Z,7.45
2022-09-20T07:57:53.461Z,7.61
2022-09-20T07:58:53.468Z,7.85
2022-09-20T07:59:53.477Z,7.79
2022-09-20T08:00:53.557Z,7.87
2022-09-20T08:01:53.561Z,7.93
2022-09-20T08:02:53.507Z,7.75
2022-09-20T08:03:53.511Z,7.55
2022-09-20T08:04:53.523Z,7.72
2022-09-20T08:05:53.531Z,8.19
2022-09-20T08:06:53.541Z,8.30
2022-09-20T08:07:53.551Z,8.52
2022-09-20T08:08:53.558Z,8.53
2022-09-20T08:09:53.567Z,8.55
2022-09-20T08:10:53.609Z,8.52
2022-09-20T08:11:53.649Z,8.43
2022-09-20T08:14:17.822Z,8.11
2022-09-20T08:14:53.621Z,8.07
2022-09-20T08:15:53.624Z,8.30
2022-09-20T08:16:53.739Z,8.28
2022-09-20T08:17:53.648Z,8.48
2022-09-20T08:18:53.648Z,8.43
2022-09-20T08:19:53.667Z,8.37
2022-09-20T08:20:53.693Z,8.45
2022-09-20T08:21:53.680Z,8.29
2022-09-20T08:23:19.491Z,8.43
2022-09-20T08:23:53.699Z,8.20
2022-09-20T08:24:53.705Z,8.02
2022-09-20T08:25:53.716Z,8.07
2022-09-20T08:26:53.756Z,8.11
2022-09-20T08:27:53.738Z,8.18
2022-09-20T08:28:53.744Z,8.44
2022-09-20T08:29:53.759Z,8.66
2022-09-20T08:30:53.800Z,8.70
2022-09-20T08:31:53.849Z,8.87
2022-09-20T08:32:53.784Z,9.01
2022-09-20T08:33:53.849Z,9.04
2022-09-20T08:34:53.803Z,9.29
2022-09-20T08:35:57.700Z,9.29
2022-09-20T08:36:53.822Z,9.33
2022-09-20T08:37:54.194Z,9.38
2022-09-20T08:39:57.913Z,9.33
2022-09-20T08:40:53.884Z,9.60
2022-09-20T08:41:53.871Z,9.97
2022-09-20T08:42:53.901Z,10.01
2022-09-20T08:43:53.993Z,9.87
2022-09-20T08:44:59.633Z,9.71
2022-09-20T08:45:54.106Z,9.71
2022-09-20T08:46:53.921Z,9.42
2022-09-20T08:47:58.393Z,9.51
2022-09-20T08:48:53.939Z,9.53
2022-09-20T08:49:56.753Z,9.75
2022-09-20T08:50:53.967Z,9.65
2022-09-20T08:51:53.976Z,9.69
2022-09-20T08:52:59.813Z,9.81
2022-09-20T08:53:53.997Z,9.96
2022-09-20T08:54:54.006Z,9.89
2022-09-20T08:55:54.018Z,9.57
2022-09-20T08:56:54.028Z,9.39
2022-09-20T08:57:54.065Z,9.86
2022-09-20T08:58:54.067Z,9.97
2022-09-20T08:59:54.055Z,9.79
2022-09-20T09:00:54.136Z,10.02
2022-09-20T09:01:54.086Z,10.78
2022-09-20T09:02:54.088Z,10.33
2022-09-20T09:03:54.096Z,9.84
2022-09-20T09:04:54.109Z,10.15
2022-09-20T09:05:54.120Z,10.18
2022-09-20T09:06:54.128Z,10.34
2022-09-20T09:07:54.144Z,10.47
2022-09-20T09:08:54.163Z,10.79
2022-09-20T09:09:54.169Z,10.33
2022-09-20T09:10:54.298Z,10.27
2022-09-20T09:11:54.189Z,10.23
2022-09-20T09:12:54.198Z,10.38
2022-09-20T09:13:54.284Z,10.47
2022-09-20T09:14:54.250Z,10.55
2022-09-20T09:15:54.237Z,10.52
2022-09-20T09:16:54.294Z,10.25
2022-09-20T09:17:54.246Z,10.29
2022-09-20T09:18:54.269Z,10.33
2022-09-20T09:19:54.272Z,10.45
2022-09-20T09:20:54.283Z,10.67
2022-09-20T09:21:54.297Z,11.02
2022-09-20T09:22:54.303Z,10.99
2022-09-20T09:23:54.313Z,10.89
2022-09-20T09:24:54.323Z,10.63
2022-09-20T09:25:54.340Z,10.96
2022-09-20T09:26:54.349Z,11.03
2022-09-20T09:27:54.357Z,10.94
2022-09-20T09:28:54.375Z,11.11
2022-09-20T09:29:54.387Z,11.40
2022-09-20T09:30:54.417Z,11.33
2022-09-20T09:31:54.513Z,11.76
2022-09-20T09:32:54.416Z,12.02
2022-09-20T09:33:54.426Z,12.12
2022-09-20T09:34:54.443Z,12.13
2022-09-20T09:35:54.459Z,11.98
2022-09-20T09:36:54.484Z,11.54
2022-09-20T09:37:54.483Z,11.36
2022-09-20T09:38:54.589Z,11.44
2022-09-20T09:39:54.501Z,11.42
2022-09-20T09:40:54.518Z,10.94
2022-09-20T09:41:54.521Z,11.02
2022-09-20T09:42:54.539Z,11.35
2022-09-20T09:43:54.552Z,11.67
2022-09-20T09:44:54.558Z,11.95
2022-09-20T09:45:54.624Z,12.23
2022-09-20T09:46:54.613Z,12.10
2022-09-20T09:47:54.595Z,11.96
2022-09-20T09:48:54.705Z,12.04
2022-09-20T09:49:59.720Z,12.31
2022-09-20T09:50:54.631Z,12.39
2022-09-20T09:51:54.643Z,12.56
2022-09-20T09:52:54.656Z,12.27
2022-09-20T09:53:54.670Z,12.49
2022-09-20T09:54:54.680Z,12.56
2022-09-20T09:55:54.696Z,12.20
2022-09-20T09:56:54.705Z,12.13
2022-09-20T09:57:54.721Z,12.60
2022-09-20T09:58:54.797Z,12.96
2022-09-20T09:59:54.745Z,12.71
2022-09-20T10:00:54.841Z,12.75
2022-09-20T10:01:54.876Z,12.72
2022-09-20T10:02:54.808Z,12.96
2022-09-20T10:03:54.795Z,12.71
2022-09-20T10:04:54.806Z,12.34
2022-09-20T10:05:54.819Z,12.24
2022-09-20T10:06:54.859Z,13.15
2022-09-20T10:07:54.852Z,13.59
2022-09-20T10:08:54.958Z,13.70
2022-09-20T10:09:54.873Z,13.71
2022-09-20T10:10:54.883Z,13.33
2022-09-20T10:11:54.925Z,12.89
2022-09-20T10:12:54.923Z,12.14
2022-09-20T10:13:54.999Z,11.79
2022-09-20T10:14:54.942Z,12.17
2022-09-20T10:15:54.958Z,12.82
2022-09-20T10:16:55.022Z,13.04
2022-09-20T10:17:54.974Z,13.17
2022-09-20T10:18:55.051Z,13.22
2022-09-20T10:19:55.004Z,13.08
2022-09-20T10:20:55.018Z,12.93
2022-09-20T10:21:55.031Z,12.93
2022-09-20T10:23:24.186Z,13.08
2022-09-20T10:24:03.990Z,12.86
2022-09-20T10:24:55.073Z,13.26
2022-09-20T10:25:55.090Z,13.26
2022-09-20T10:26:55.105Z,13.12
2022-09-20T10:27:55.111Z,13.08
2022-09-20T10:28:55.201Z,12.93
2022-09-20T10:29:55.144Z,13.01
2022-09-20T10:30:55.202Z,13.42
2022-09-20T10:31:55.167Z,13.15
2022-09-20T10:32:55.186Z,13.23
2022-09-20T10:33:55.194Z,13.30
2022-09-20T10:34:55.230Z,13.26
2022-09-20T10:35:55.232Z,13.17
2022-09-20T10:36:55.245Z,13.10
2022-09-20T10:37:55.248Z,13.42
2022-09-20T10:38:55.260Z,13.71
2022-09-20T10:39:55.374Z,13.73
2022-09-20T10:40:55.285Z,13.51
2022-09-20T10:41:55.310Z,13.51
2022-09-20T10:42:55.322Z,13.29
2022-09-20T10:43:55.382Z,13.08
2022-09-20T10:44:55.345Z,13.33
2022-09-20T10:46:55.423Z,13.63
2022-09-20T10:47:55.388Z,14.06
2022-09-20T10:48:55.398Z,14.37
2022-09-20T10:49:55.424Z,14.09
2022-09-20T10:50:55.452Z,14.27
2022-09-20T10:51:55.439Z,14.22
2022-09-20T10:52:55.466Z,14.07
2022-09-20T10:53:55.583Z,14.21
2022-09-20T10:54:55.485Z,14.20
2022-09-20T10:55:55.501Z,14.10
2022-09-20T10:56:55.515Z,14.14
2022-09-20T10:57:55.527Z,13.60
2022-09-20T10:58:55.617Z,13.46
2022-09-20T10:59:55.557Z,13.66
2022-09-20T11:00:55.608Z,13.92
2022-09-20T11:01:55.689Z,14.28
2022-09-20T11:02:55.597Z,14.64
2022-09-20T11:03:55.616Z,14.98
2022-09-20T11:04:55.633Z,14.51
2022-09-20T11:05:55.642Z,14.61
2022-09-20T11:06:55.681Z,14.92
2022-09-20T11:07:55.674Z,15.29
2022-09-20T11:08:55.704Z,15.49
2022-09-20T11:09:55.700Z,15.60
2022-09-20T11:10:55.715Z,14.99
2022-09-20T11:11:55.734Z,14.32
2022-09-20T11:12:55.744Z,14.39
2022-09-20T11:13:55.859Z,14.72
2022-09-20T11:14:55.797Z,15.06
2022-09-20T11:15:55.814Z,15.44
2022-09-20T11:16:55.887Z,15.47
2022-09-20T11:17:55.819Z,15.14
2022-09-20T11:18:55.835Z,15.43
2022-09-20T11:19:55.857Z,15.16
2022-09-20T11:20:55.868Z,15.14
2022-09-20T11:21:55.886Z,14.99
2022-09-20T11:22:55.928Z,14.94
2022-09-20T11:23:55.915Z,15.01
2022-09-20T11:24:55.929Z,15.34
2022-09-20T11:25:55.941Z,15.38
2022-09-20T11:26:55.959Z,15.59
2022-09-20T11:27:55.979Z,15.49
2022-09-20T11:28:55.993Z,15.43
2022-09-20T11:29:56.004Z,15.49
2022-09-20T11:30:56.019Z,16.07
2022-09-20T11:31:56.135Z,16.60
2022-09-20T11:32:56.051Z,16.78
2022-09-20T11:33:56.146Z,16.41
2022-09-20T11:34:56.085Z,16.34
2022-09-20T11:35:56.097Z,16.73
2022-09-20T11:36:56.119Z,16.82
2022-09-20T11:37:56.133Z,17.21
2022-09-20T11:38:56.186Z,16.78
2022-09-20T11:39:56.169Z,16.81
2022-09-20T11:40:56.179Z,17.07
2022-09-20T11:41:56.204Z,16.97
2022-09-20T11:42:56.211Z,16.58
2022-09-20T11:43:56.225Z,16.79
2022-09-20T11:44:56.244Z,16.81
2022-09-20T11:45:56.322Z,17.34
2022-09-20T11:46:56.274Z,17.64
2022-09-20T11:47:56.294Z,17.59
2022-09-20T11:48:56.311Z,17.49
2022-09-20T11:49:56.336Z,17.62
2022-09-20T11:50:56.342Z,17.81
2022-09-20T11:51:56.356Z,17.97
2022-09-20T11:52:56.372Z,17.99
2022-09-20T11:53:56.390Z,17.96
2022-09-20T11:54:56.431Z,17.95
2022-09-20T11:55:56.427Z,17.62
2022-09-20T11:56:56.444Z,17.16
2022-09-20T11:57:56.458Z,17.31
2022-09-20T11:58:56.577Z,17.62
2022-09-20T11:59:56.523Z,17.79
2022-09-20T12:00:56.511Z,18.12
2022-09-20T12:01:56.590Z,18.26
2022-09-20T12:02:56.673Z,17.89
2022-09-20T12:04:14.236Z,17.54
2022-09-20T12:04:56.584Z,16.64
2022-09-20T12:05:56.593Z,16.64
2022-09-20T12:06:56.612Z,16.89
2022-09-20T12:07:56.636Z,17.15
2022-09-20T12:08:56.644Z,17.58
2022-09-20T12:09:56.664Z,17.46
2022-09-20T12:10:56.703Z,17.33
2022-09-20T12:11:56.694Z,17.01
2022-09-20T12:12:56.712Z,16.25
2022-09-20T12:13:56.731Z,16.50
2022-09-20T12:14:56.745Z,16.61
2022-09-20T12:15:56.773Z,16.91
2022-09-20T12:16:56.900Z,17.03
2022-09-20T12:17:56.799Z,17.46
2022-09-20T12:18:56.815Z,17.74
2022-09-20T12:19:56.831Z,17.49
2022-09-20T12:20:56.863Z,16.83
2022-09-20T12:21:56.876Z,16.83
2022-09-20T12:22:56.884Z,16.42
2022-09-20T12:23:56.903Z,16.49
2022-09-20T12:24:56.921Z,16.42
2022-09-20T12:25:56.937Z,17.00
2022-09-20T12:26:57.025Z,17.54
2022-09-20T12:27:56.970Z,17.55
2022-09-20T12:28:56.989Z,17.77
2022-09-20T12:29:57.005Z,17.41
2022-09-20T12:30:57.036Z,17.71
2022-09-20T12:31:57.112Z,16.98
2022-09-20T12:32:57.058Z,16.60
2022-09-20T12:33:57.072Z,17.22
2022-09-20T12:34:57.089Z,17.22
2022-09-20T12:35:57.107Z,17.72
2022-09-20T12:36:57.127Z,17.96
2022-09-20T12:37:57.144Z,17.22
2022-09-20T12:38:57.263Z,17.40
2022-09-20T12:39:57.243Z,17.16
2022-09-20T12:40:57.196Z,17.31
2022-09-20T12:41:57.209Z,16.88
2022-09-20T12:42:57.249Z,17.07
2022-09-20T12:43:57.247Z,17.56
2022-09-20T12:44:57.262Z,17.63
2022-09-20T12:46:02.883Z,17.79
2022-09-20T12:46:57.294Z,18.25
2022-09-20T12:47:57.316Z,17.75
2022-09-20T12:48:57.346Z,17.41
2022-09-20T12:49:57.348Z,17.46
2022-09-20T12:50:57.366Z,17.54
2022-09-20T12:51:57.382Z,17.44
2022-09-20T12:52:57.640Z,17.49
2022-09-20T12:53:57.422Z,17.54
2022-09-20T12:55:00.960Z,16.96
2022-09-20T12:55:57.452Z,17.33
2022-09-20T12:56:57.470Z,16.98
2022-09-20T12:57:57.489Z,16.53
2022-09-20T12:58:57.542Z,16.12
2022-09-20T12:59:57.523Z,16.83
2022-09-20T13:00:57.634Z,17.58
2022-09-20T13:01:57.597Z,17.68
2022-09-20T13:02:57.589Z,17.19
2022-09-20T13:03:57.592Z,17.64
2022-09-20T13:04:57.609Z,18.03
2022-09-20T13:05:57.629Z,17.68
2022-09-20T13:06:57.645Z,17.55
2022-09-20T13:07:57.661Z,17.04
2022-09-20T13:08:57.682Z,17.25
2022-09-20T13:09:57.697Z,17.52
2022-09-20T13:10:57.712Z,17.59
2022-09-20T13:11:57.729Z,18.27
2022-09-20T13:12:57.750Z,18.15
2022-09-20T13:13:57.765Z,18.17